createdAt,value
2022-09-30T01:43:43.535Z,101101.00
2022-09-30T02:18:06.911Z,101110.97
2022-09-30T02:27:07.946Z,101107.84
2022-09-30T02:30:02.408Z,101115.50
2022-09-30T02:35:59.179Z,101118.22
2022-09-30T02:38:42.954Z,101128.25
2022-09-30T02:41:33.268Z,101126.78
2022-09-30T02:47:21.809Z,101130.69
2022-09-30T02:53:39.584Z,101115.72
2022-09-30T02:59:15.122Z,101114.41
2022-09-30T03:04:56.735Z,101114.16
2022-09-30T03:21:22.955Z,101130.63
2022-09-30T03:31:29.089Z,101122.22
2022-09-30T03:45:51.080Z,101119.22
2022-09-30T03:55:01.419Z,101126.97
2022-09-30T03:57:35.100Z,101136.59
2022-09-30T04:17:54.642Z,101144.66
2022-09-30T04:29:46.143Z,101151.28
2022-09-30T04:32:14.553Z,101156.75
2022-09-30T04:34:44.938Z,101176.78
2022-09-30T04:37:15.492Z,101180.28
2022-09-30T04:39:46.639Z,101181.50
2022-09-30T04:42:16.205Z,101181.69
2022-09-30T04:44:49.570Z,101182.88
2022-09-30T04:47:23.408Z,101178.66
2022-09-30T04:49:59.871Z,101175.78
2022-09-30T04:52:35.531Z,101166.63
2022-09-30T04:55:09.446Z,101174.28
2022-09-30T04:57:44.549Z,101180.06
2022-09-30T05:03:11.956Z,101185.34
2022-09-30T05:05:45.674Z,101189.75
2022-09-30T05:08:16.435Z,101187.78
2022-09-30T05:10:47.259Z,101183.56
2022-09-30T05:13:31.201Z,101179.25
2022-09-30T05:19:01.023Z,101146.56
2022-09-30T05:21:54.238Z,101147.00
2022-09-30T05:24:28.239Z,101157.00
2022-09-30T05:29:56.416Z,101177.00
2022-09-30T05:32:29.021Z,101189.47
2022-09-30T05:35:04.605Z,101196.75
2022-09-30T05:37:35.964Z,101203.69
2022-09-30T05:43:19.910Z,101205.31
2022-09-30T05:46:09.598Z,101218.09
2022-09-30T05:48:41.492Z,101222.31
2022-09-30T05:51:13.467Z,101217.94
2022-09-30T05:56:43.697Z,101222.41
2022-09-30T05:59:14.934Z,101220.13
2022-09-30T06:01:52.083Z,101227.13
2022-09-30T06:04:25.976Z,101228.63
2022-09-30T06:07:12.438Z,101221.19
2022-09-30T06:09:57.397Z,101219.47
2022-09-30T06:12:42.293Z,101216.97
2022-09-30T06:15:25.909Z,101220.97
2022-09-30T06:17:56.705Z,101235.44
2022-09-30T06:20:26.332Z,101259.25
2022-09-30T06:23:04.487Z,101269.34
2022-09-30T06:25:33.374Z,101277.75
2022-09-30T06:28:02.938Z,101279.84
2022-09-30T06:30:35.204Z,101283.22
2022-09-30T06:33:04.976Z,101272.41
2022-09-30T06:35:36.293Z,101266.16
2022-09-30T06:38:04.711Z,101277.94
2022-09-30T06:40:33.555Z,101281.44
2022-09-30T06:43:03.425Z,101278.34
2022-09-30T06:45:33.502Z,101288.41
2022-09-30T06:48:06.965Z,101282.91
2022-09-30T06:50:53.866Z,101283.34
2022-09-30T06:53:28.242Z,101287.84
2022-09-30T06:55:58.270Z,101290.03
2022-09-30T06:58:28.617Z,101287.84
2022-09-30T07:01:25.501Z,101283.00
2022-09-30T07:04:02.262Z,101282.38
2022-09-30T07:06:32.069Z,101271.06
2022-09-30T07:09:04.173Z,101255.47
2022-09-30T07:11:45.819Z,101262.53
2022-09-30T07:14:27.570Z,101263.81
2022-09-30T07:16:56.517Z,101269.38
2022-09-30T07:19:37.429Z,101271.66
2022-09-30T07:22:26.218Z,101268.47
2022-09-30T07:25:06.448Z,101278.78
2022-09-30T07:27:35.767Z,101267.59
2022-09-30T07:30:21.513Z,101266.06
2022-09-30T07:33:05.080Z,101268.97
2022-09-30T07:35:35.537Z,101262.00
2022-09-30T07:38:18.238Z,101269.59
2022-09-30T07:41:17.303Z,101267.38
2022-09-30T07:43:47.370Z,101268.38
2022-09-30T07:46:22.914Z,101272.50
2022-09-30T07:48:58.352Z,101273.84
2022-09-30T07:51:51.500Z,101276.44
2022-09-30T07:54:27.060Z,101273.06
2022-09-30T07:57:14.913Z,101274.72
2022-09-30T07:59:46.660Z,101273.94
2022-09-30T08:02:19.207Z,101268.72
2022-09-30T08:04:51.179Z,101262.72
2022-09-30T08:07:24.163Z,101261.41
2022-09-30T08:09:53.371Z,101267.78
2022-09-30T08:12:25.693Z,101266.84
2022-09-30T08:14:56.176Z,101268.78
2022-09-30T08:17:25.747Z,101262.38
2022-09-30T08:19:54.453Z,101256.06
2022-09-30T08:22:26.934Z,101260.97
2022-09-30T08:24:56.929Z,101272.16
2022-09-30T08:27:25.441Z,101276.41
2022-09-30T08:29:59.121Z,101274.41
2022-09-30T08:32:32.790Z,101271.91
2022-09-30T08:35:05.346Z,101272.50
2022-09-30T08:37:33.268Z,101277.59
2022-09-30T08:40:04.392Z,101284.97
2022-09-30T08:42:41.283Z,101280.59
2022-09-30T08:45:53.301Z,101280.00
2022-09-30T08:48:32.418Z,101274.78
2022-09-30T08:51:39.116Z,101274.53
2022-09-30T08:54:16.471Z,101274.84
2022-09-30T08:56:46.825Z,101276.97
2022-09-30T08:59:23.297Z,101278.69
2022-09-30T09:01:59.227Z,101280.47
2022-09-30T09:04:28.525Z,101272.97
2022-09-30T09:07:25.616Z,101273.19
2022-09-30T09:10:33.430Z,101285.03
2022-09-30T09:13:39.092Z,101284.03
2022-09-30T09:16:43.024Z,101292.69
2022-09-30T09:19:19.876Z,101292.38
2022-09-30T09:21:57.471Z,101306.63
2022-09-30T09:24:37.208Z,101303.16
2022-09-30T09:27:49.893Z,101302.63
2022-09-30T09:30:26.118Z,101302.38
2022-09-30T09:32:58.314Z,101293.88
2022-09-30T09:35:52.005Z,101290.13
2022-09-30T09:38:39.014Z,101286.34
2022-09-30T09:41:39.858Z,101287.72
2022-09-30T09:44:48.421Z,101281.72
2022-09-30T09:47:17.678Z,101284.16
2022-09-30T09:49:57.588Z,101290.97
2022-09-30T09:53:06.903Z,101286.66
2022-09-30T09:55:35.315Z,101288.81
2022-09-30T09:58:22.164Z,101294.44
2022-09-30T10:00:54.103Z,101288.38
2022-09-30T10:03:29.086Z,101292.13
2022-09-30T10:06:13.497Z,101292.72
2022-09-30T10:09:02.304Z,101294.38
2022-09-30T10:11:31.326Z,101295.97
2022-09-30T10:14:03.270Z,101299.75
2022-09-30T10:16:39.073Z,101310.63
2022-09-30T10:19:27.701Z,101316.94
2022-09-30T10:22:15.529Z,101296.41
2022-09-30T10:24:44.590Z,101285.69
2022-09-30T10:27:35.597Z,101298.75
2022-09-30T10:30:05.117Z,101293.75
2022-09-30T10:32:33.461Z,101287.69
2022-09-30T10:35:17.942Z,101281.34
2022-09-30T10:37:55.437Z,101283.50
2022-09-30T10:43:36.180Z,101286.66
2022-09-30T10:46:25.687Z,101281.75
2022-09-30T10:48:58.001Z,101282.41
2022-09-30T10:51:32.112Z,101274.03
2022-09-30T10:54:01.014Z,101270.94
2022-09-30T10:56:49.229Z,101270.00
2022-09-30T10:59:39.343Z,101270.69
2022-09-30T11:02:25.878Z,101268.75
2022-09-30T11:05:21.118Z,101266.59
2022-09-30T11:08:05.928Z,101267.84
2022-09-30T11:11:17.706Z,101274.81
2022-09-30T11:14:35.979Z,101291.69
2022-09-30T11:17:40.410Z,101289.97
2022-09-30T11:20:25.748Z,101286.22
2022-09-30T11:22:57.587Z,101290.03
2022-09-30T11:25:42.421Z,101297.69
2022-09-30T11:28:32.314Z,101287.13
2022-09-30T11:31:21.810Z,101283.06
2022-09-30T11:34:15.395Z,101286.06
2022-09-30T11:37:14.045Z,101283.22
2022-09-30T11:39:44.301Z,101287.03
2022-09-30T11:42:37.179Z,101278.47
2022-09-30T11:45:46.448Z,101286.88
2022-09-30T11:49:10.124Z,101279.72
2022-09-30T11:52:06.266Z,101266.44
2022-09-30T11:55:15.289Z,101257.13
2022-09-30T11:58:17.379Z,101248.56
2022-09-30T12:01:38.407Z,101253.31
2022-09-30T12:04:16.293Z,101261.94
2022-09-30T12:07:25.353Z,101263.38
2022-09-30T12:10:01.535Z,101275.03
2022-09-30T12:12:33.012Z,101264.31
2022-09-30T12:15:07.130Z,101263.81
2022-09-30T12:17:50.158Z,101273.97
2022-09-30T12:20:29.889Z,101280.75
2022-09-30T12:23:06.041Z,101273.25
2022-09-30T12:25:57.241Z,101263.19
2022-09-30T12:29:17.338Z,101258.09
2022-09-30T12:32:01.670Z,101251.28
2022-09-30T12:35:20.906Z,101257.22
2022-09-30T12:38:19.054Z,101262.00
2022-09-30T12:41:08.519Z,101253.47
2022-09-30T12:44:04.885Z,101263.09
2022-09-30T12:47:24.759Z,101277.56
2022-09-30T12:50:11.177Z,101289.34
2022-09-30T12:52:40.156Z,101293.28
2022-09-30T12:55:34.942Z,101284.47
2022-09-30T12:58:07.824Z,101279.38
2022-09-30T13:00:42.125Z,101268.31
2022-09-30T13:03:24.713Z,101266.84
2022-09-30T13:06:02.457Z,101258.06
2022-09-30T13:08:44.954Z,101257.25
2022-09-30T13:11:45.230Z,101257.84
2022-09-30T13:14:44.572Z,101252.97
2022-09-30T13:17:14.400Z,101249.38
2022-09-30T13:19:53.768Z,101246.88
2022-09-30T13:22:33.188Z,101250.22
2022-09-30T13:25:19.083Z,101243.94
2022-09-30T13:28:15.437Z,101255.25
2022-09-30T13:30:54.117Z,101256.34
2022-09-30T13:33:44.136Z,101263.38
2022-09-30T13:36:28.808Z,101261.69
2022-09-30T13:39:46.466Z,101260.97
2022-09-30T13:42:22.708Z,101251.81
2022-09-30T13:45:20.356Z,101246.81
2022-09-30T13:48:37.095Z,101241.47
2022-09-30T13:51:15.288Z,101255.03
2022-09-30T13:53:55.568Z,101245.03
2022-09-30T13:56:37.226Z,101244.91
2022-09-30T13:59:53.507Z,101249.31
2022-09-30T14:02:45.106Z,101252.06
2022-09-30T14:05:56.919Z,101250.84
2022-09-30T14:09:10.902Z,101261.31
2022-09-30T14:12:04.581Z,101272.03
2022-09-30T14:15:11.279Z,101264.53
2022-09-30T14:18:08.810Z,101269.53
2022-09-30T14:21:19.543Z,101274.19
2022-09-30T14:24:00.506Z,101285.94
2022-09-30T14:27:08.464Z,101277.72
2022-09-30T14:30:00.656Z,101279.72
2022-09-30T14:32:34.466Z,101293.06
2022-09-30T14:35:09.416Z,101289.69
2022-09-30T14:37:52.696Z,101294.47
2022-09-30T14:43:47.807Z,101289.47
2022-09-30T15:03:22.494Z,101292.50
2022-09-30T15:31:43.224Z,101318.50
2022-09-30T15:37:37.130Z,101334.53
2022-09-30T15:40:47.896Z,101330.34
2022-09-30T16:10:57.279Z,101373.16
2022-09-30T16:19:49.702Z,101371.03
2022-09-30T16:25:45.195Z,101380.66
2022-09-30T16:28:20.962Z,101382.75
2022-09-30T16:33:49.695Z,101377.13
2022-09-30T16:57:08.058Z,101387.44
2022-09-30T16:59:54.169Z,101382.81
2022-09-30T17:18:09.232Z,101380.06
2022-09-30T17:20:45.768Z,101377.03
2022-09-30T17:36:16.238Z,101398.56
2022-09-30T17:39:05.669Z,101390.38
2022-09-30T17:54:01.393Z,101390.63
2022-09-30T17:56:44.691Z,101391.22
2022-09-30T18:00:00.787Z,101393.53
2022-09-30T18:11:44.537Z,101408.22
2022-09-30T18:14:21.197Z,101412.88
2022-09-30T18:20:28.575Z,101413.66
2022-09-30T18:29:18.710Z,101404.22
2022-09-30T18:38:05.095Z,101411.84
2022-09-30T18:40:55.793Z,101406.66
2022-09-30T18:43:45.564Z,101413.59
2022-09-30T18:49:23.339Z,101421.06
2022-09-30T18:51:57.649Z,101417.91
2022-09-30T19:00:41.912Z,101413.53
2022-09-30T19:03:51.732Z,101412.31
2022-09-30T19:18:28.968Z,101431.66
2022-09-30T19:24:27.362Z,101438.78
2022-09-30T19:27:19.493Z,101443.84
2022-09-30T19:33:07.858Z,101437.13
2022-09-30T19:35:49.132Z,101435.66
2022-09-30T19:39:09.258Z,101444.25
2022-09-30T20:06:31.638Z,101459.91
2022-09-30T20:28:44.358Z,101475.00
2022-09-30T20:50:15.238Z,101461.66
2022-09-30T21:01:50.469Z,101471.25
2022-09-30T21:17:04.463Z,101487.16
2022-09-30T21:22:54.383Z,101471.25
2022-09-30T21:47:13.153Z,101477.09
2022-09-30T21:53:28.934Z,101482.13
2022-09-30T21:56:04.947Z,101482.56
2022-09-30T21:58:38.712Z,101479.44
2022-09-30T22:01:13.237Z,101485.91
2022-09-30T22:03:45.764Z,101484.66
2022-09-30T22:06:22.520Z,101487.56
2022-09-30T22:09:04.115Z,101491.56
2022-09-30T22:11:40.721Z,101490.09
2022-09-30T22:14:14.447Z,101487.78
2022-09-30T22:16:49.304Z,101480.66
2022-09-30T22:19:24.336Z,101479.63
2022-09-30T22:22:00.251Z,101486.34
2022-09-30T22:24:40.044Z,101477.97
2022-09-30T22:27:14.451Z,101484.66
2022-09-30T22:29:43.054Z,101487.97
2022-09-30T22:32:39.447Z,101488.44
2022-09-30T22:35:35.268Z,101484.66
2022-09-30T22:38:19.179Z,101491.78
2022-09-30T22:44:26.500Z,101480.88
2022-09-30T22:50:09.443Z,101498.44
2022-09-30T23:04:57.661Z,101493.88
2022-09-30T23:07:40.248Z,101498.44
2022-09-30T23:13:30.649Z,101494.25
2022-09-30T23:16:16.491Z,101497.59
2022-09-30T23:18:49.080Z,101501.81
2022-09-30T23:33:01.401Z,101510.16
2022-09-30T23:35:40.677Z,101505.94
2022-09-30T23:38:30.105Z,101510.97
2022-09-30T23:41:07.565Z,101513.25
2022-09-30T23:43:38.684Z,101516.81
2022-09-30T23:46:16.818Z,101513.25
2022-09-30T23:51:35.046Z,101510.09
2022-09-30T23:54:06.860Z,101504.25
2022-09-30T23:56:38.933Z,101511.38
2022-09-30T23:59:09.817Z,101507.19
